RYR238M LIRZ-EPKK
Flight info
| Callsign | RYR238M |
|---|---|
| Flight time | 1h 26m |
| Altitude | 35000 |
| Route | KATAR L865 GOTMO DCT ERDON DCT ERLIT DCT ANC DCT IBENI DCT IPKIS DCT LOS DCT KOPRY DCT MOCON M985 MEBAN |
| Aircraft | B38M/M-SDE1FGHILORVWXY/HB1 |
Departure
| Time | 2026-04-26 15:43 |
|---|---|
| Airport | Perugia San Francesco d'Assisi – Umbria International Airport (LIRZ) |
Arrival
| Time | 2026-04-26 17:10 |
|---|---|
| Airport | Kraków John Paul II International Airport (EPKK) |
| Time | Latitude | Longitude | Altitude | Speed | Heading |
|---|---|---|---|---|---|
| 2026-04-26 15:17 | 43.09513 | 12.50384 | 671 ft | 0 kts | 249° |
| 2026-04-26 15:35 | 43.09520 | 12.50405 | 671 ft | 4 kts | 244° |
| 2026-04-26 15:36 | 43.09534 | 12.50434 | 671 ft | 4 kts | 215° |
| 2026-04-26 15:36 | 43.09555 | 12.50445 | 668 ft | 4 kts | 182° |
| 2026-04-26 15:36 | 43.09577 | 12.50434 | 669 ft | 4 kts | 143° |
| 2026-04-26 15:36 | 43.09592 | 12.50422 | 669 ft | 0 kts | 160° |
| 2026-04-26 15:39 | 43.09586 | 12.50425 | 671 ft | 4 kts | 158° |
| 2026-04-26 15:39 | 43.09553 | 12.50485 | 671 ft | 11 kts | 86° |
| 2026-04-26 15:39 | 43.09586 | 12.50595 | 671 ft | 13 kts | 65° |
| 2026-04-26 15:39 | 43.09613 | 12.50676 | 672 ft | 15 kts | 66° |
| 2026-04-26 15:40 | 43.09673 | 12.50862 | 671 ft | 17 kts | 66° |
| 2026-04-26 15:40 | 43.09726 | 12.51025 | 670 ft | 21 kts | 65° |
| 2026-04-26 15:40 | 43.09802 | 12.51165 | 672 ft | 18 kts | 16° |
| 2026-04-26 15:40 | 43.09931 | 12.51210 | 672 ft | 22 kts | 14° |
| 2026-04-26 15:41 | 43.10089 | 12.51264 | 672 ft | 24 kts | 14° |
| 2026-04-26 15:41 | 43.10257 | 12.51323 | 672 ft | 26 kts | 14° |
| 2026-04-26 15:41 | 43.10434 | 12.51385 | 672 ft | 27 kts | 14° |
| 2026-04-26 15:41 | 43.10620 | 12.51450 | 672 ft | 28 kts | 15° |
| 2026-04-26 15:42 | 43.10755 | 12.51502 | 672 ft | 15 kts | 32° |
| 2026-04-26 15:42 | 43.10771 | 12.51630 | 669 ft | 15 kts | 104° |
| 2026-04-26 15:42 | 43.10735 | 12.51719 | 671 ft | 8 kts | 172° |
| 2026-04-26 15:42 | 43.10720 | 12.51716 | 671 ft | 0 kts | 194° |
| 2026-04-26 15:43 | 43.10565 | 12.51661 | 672 ft | 64 kts | 194° |
| 2026-04-26 15:43 | 43.09871 | 12.51422 | 671 ft | 139 kts | 194° |
| 2026-04-26 15:43 | 43.07547 | 12.50642 | 1908 ft | 183 kts | 197° |
| 2026-04-26 15:44 | 43.06283 | 12.50168 | 2782 ft | 192 kts | 198° |
| 2026-04-26 15:44 | 43.03682 | 12.48750 | 4474 ft | 215 kts | 211° |
| 2026-04-26 15:44 | 43.02335 | 12.47743 | 5272 ft | 223 kts | 211° |
| 2026-04-26 15:45 | 42.99444 | 12.45566 | 6632 ft | 257 kts | 210° |
| 2026-04-26 15:45 | 42.97828 | 12.44349 | 7251 ft | 272 kts | 210° |
| 2026-04-26 15:46 | 42.94119 | 12.43354 | 8943 ft | 285 kts | 166° |
| 2026-04-26 15:46 | 42.92335 | 12.44551 | 9790 ft | 290 kts | 139° |
| 2026-04-26 15:46 | 42.91074 | 12.46691 | 10599 ft | 293 kts | 115° |
| 2026-04-26 15:46 | 42.90618 | 12.48417 | 11140 ft | 294 kts | 100° |
| 2026-04-26 15:47 | 42.90797 | 12.52095 | 12256 ft | 295 kts | 68° |
| 2026-04-26 15:47 | 42.93505 | 12.56197 | 13957 ft | 300 kts | 34° |
| 2026-04-26 15:47 | 42.95191 | 12.57836 | 14691 ft | 303 kts | 36° |
| 2026-04-26 15:48 | 42.96920 | 12.59544 | 15277 ft | 314 kts | 36° |
| 2026-04-26 15:48 | 42.98758 | 12.61385 | 15586 ft | 333 kts | 36° |
| 2026-04-26 15:48 | 43.00651 | 12.63283 | 15878 ft | 350 kts | 35° |
| 2026-04-26 15:48 | 43.02654 | 12.65281 | 16318 ft | 362 kts | 35° |
| 2026-04-26 15:49 | 43.04695 | 12.67315 | 17030 ft | 365 kts | 37° |
| 2026-04-26 15:49 | 43.06520 | 12.69759 | 17689 ft | 370 kts | 46° |
| 2026-04-26 15:49 | 43.08281 | 12.72345 | 18340 ft | 374 kts | 45° |
| 2026-04-26 15:49 | 43.10060 | 12.74950 | 18934 ft | 377 kts | 45° |
| 2026-04-26 15:50 | 43.11859 | 12.77590 | 19493 ft | 381 kts | 45° |
| 2026-04-26 15:50 | 43.13670 | 12.80251 | 20058 ft | 384 kts | 45° |
| 2026-04-26 15:50 | 43.15498 | 12.82941 | 20609 ft | 388 kts | 45° |
| 2026-04-26 15:50 | 43.17347 | 12.85661 | 21146 ft | 391 kts | 45° |
| 2026-04-26 15:51 | 43.19206 | 12.88401 | 21707 ft | 394 kts | 45° |
| 2026-04-26 15:51 | 43.21082 | 12.91174 | 22194 ft | 398 kts | 45° |
| 2026-04-26 15:51 | 43.22969 | 12.93968 | 22724 ft | 401 kts | 45° |
| 2026-04-26 15:51 | 43.24872 | 12.96792 | 23239 ft | 405 kts | 45° |
| 2026-04-26 15:52 | 43.26791 | 12.99639 | 23739 ft | 408 kts | 45° |
| 2026-04-26 15:52 | 43.28725 | 13.02514 | 24163 ft | 411 kts | 45° |
| 2026-04-26 15:52 | 43.30685 | 13.05397 | 24590 ft | 414 kts | 44° |
| 2026-04-26 15:52 | 43.31990 | 13.07317 | 24834 ft | 417 kts | 44° |
| 2026-04-26 15:53 | 43.34616 | 13.11186 | 25400 ft | 420 kts | 44° |
| 2026-04-26 15:53 | 43.36615 | 13.14136 | 25805 ft | 423 kts | 44° |
| 2026-04-26 15:53 | 43.38623 | 13.17111 | 26215 ft | 426 kts | 45° |
| 2026-04-26 15:53 | 43.40641 | 13.20123 | 26601 ft | 429 kts | 45° |
| 2026-04-26 15:54 | 43.42667 | 13.23149 | 26989 ft | 432 kts | 45° |
| 2026-04-26 15:54 | 43.44709 | 13.26200 | 27365 ft | 435 kts | 45° |
| 2026-04-26 15:54 | 43.46763 | 13.29272 | 27757 ft | 437 kts | 45° |
| 2026-04-26 15:54 | 43.48829 | 13.32365 | 28139 ft | 440 kts | 45° |
| 2026-04-26 15:55 | 43.50908 | 13.35482 | 28504 ft | 443 kts | 45° |
| 2026-04-26 15:55 | 43.52996 | 13.38616 | 28867 ft | 446 kts | 45° |
| 2026-04-26 15:55 | 43.55095 | 13.41769 | 29220 ft | 448 kts | 45° |
| 2026-04-26 15:55 | 43.57210 | 13.44950 | 29577 ft | 451 kts | 45° |
| 2026-04-26 15:56 | 43.59444 | 13.47979 | 29898 ft | 450 kts | 35° |
| 2026-04-26 15:56 | 43.61958 | 13.50557 | 30233 ft | 452 kts | 34° |
| 2026-04-26 15:56 | 43.64465 | 13.53188 | 30488 ft | 455 kts | 34° |
| 2026-04-26 15:56 | 43.66992 | 13.55838 | 30778 ft | 456 kts | 34° |
| 2026-04-26 15:57 | 43.69525 | 13.58494 | 31076 ft | 458 kts | 34° |
| 2026-04-26 15:57 | 43.72063 | 13.61157 | 31449 ft | 458 kts | 34° |
| 2026-04-26 15:57 | 43.74597 | 13.63818 | 31827 ft | 457 kts | 35° |
| 2026-04-26 15:57 | 43.76273 | 13.65580 | 32071 ft | 457 kts | 35° |
| 2026-04-26 15:58 | 43.79656 | 13.69141 | 32562 ft | 456 kts | 35° |
| 2026-04-26 15:58 | 43.82181 | 13.71801 | 32921 ft | 456 kts | 35° |
| 2026-04-26 15:58 | 43.84705 | 13.74464 | 33282 ft | 456 kts | 35° |
| 2026-04-26 15:58 | 43.87223 | 13.77123 | 33634 ft | 456 kts | 35° |
| 2026-04-26 15:59 | 43.89745 | 13.79790 | 33993 ft | 455 kts | 35° |
| 2026-04-26 15:59 | 43.92263 | 13.82454 | 34310 ft | 455 kts | 35° |
| 2026-04-26 15:59 | 43.94773 | 13.85113 | 34592 ft | 455 kts | 35° |
| 2026-04-26 15:59 | 43.97290 | 13.87783 | 34883 ft | 455 kts | 35° |
| 2026-04-26 16:00 | 43.99803 | 13.90451 | 35086 ft | 456 kts | 35° |
| 2026-04-26 16:00 | 44.04871 | 13.95837 | 35093 ft | 459 kts | 35° |
| 2026-04-26 16:01 | 44.09935 | 14.01232 | 35100 ft | 459 kts | 35° |
| 2026-04-26 16:01 | 44.14997 | 14.06636 | 35095 ft | 459 kts | 35° |
| 2026-04-26 16:02 | 44.20028 | 14.12017 | 35093 ft | 459 kts | 35° |
| 2026-04-26 16:02 | 44.25082 | 14.17436 | 35091 ft | 458 kts | 35° |
| 2026-04-26 16:03 | 44.30136 | 14.22868 | 35088 ft | 459 kts | 35° |
| 2026-04-26 16:03 | 44.35189 | 14.28309 | 35088 ft | 459 kts | 35° |
| 2026-04-26 16:04 | 44.40238 | 14.33762 | 35094 ft | 459 kts | 35° |
| 2026-04-26 16:04 | 44.44431 | 14.38300 | 35095 ft | 458 kts | 35° |
| 2026-04-26 16:05 | 44.49473 | 14.43767 | 35087 ft | 459 kts | 35° |
| 2026-04-26 16:05 | 44.54324 | 14.49565 | 35086 ft | 460 kts | 42° |
| 2026-04-26 16:06 | 44.59625 | 14.56905 | 35084 ft | 461 kts | 42° |
| 2026-04-26 16:06 | 44.63436 | 14.62219 | 35078 ft | 461 kts | 43° |
| 2026-04-26 16:07 | 44.67980 | 14.68570 | 35079 ft | 461 kts | 42° |
| 2026-04-26 16:07 | 44.72525 | 14.74939 | 35079 ft | 461 kts | 42° |
| 2026-04-26 16:08 | 44.77067 | 14.81318 | 35082 ft | 462 kts | 43° |
| 2026-04-26 16:08 | 44.81607 | 14.87708 | 35084 ft | 461 kts | 43° |
| 2026-04-26 16:09 | 44.86147 | 14.94113 | 35086 ft | 462 kts | 43° |
| 2026-04-26 16:09 | 44.90650 | 15.00484 | 35089 ft | 462 kts | 43° |
| 2026-04-26 16:10 | 44.95184 | 15.06911 | 35099 ft | 462 kts | 43° |
| 2026-04-26 16:10 | 44.99716 | 15.13351 | 35104 ft | 462 kts | 43° |
| 2026-04-26 16:10 | 45.01973 | 15.16564 | 35400 ft | 459 kts | 43° |
| 2026-04-26 16:11 | 45.04216 | 15.19761 | 35674 ft | 457 kts | 43° |
| 2026-04-26 16:11 | 45.06451 | 15.22951 | 35867 ft | 457 kts | 43° |
| 2026-04-26 16:11 | 45.08686 | 15.26144 | 36066 ft | 457 kts | 43° |
| 2026-04-26 16:11 | 45.10922 | 15.29342 | 36245 ft | 457 kts | 43° |
| 2026-04-26 16:12 | 45.13156 | 15.32542 | 36418 ft | 457 kts | 43° |
| 2026-04-26 16:12 | 45.15388 | 15.35742 | 36620 ft | 457 kts | 43° |
| 2026-04-26 16:12 | 45.19847 | 15.42145 | 36951 ft | 456 kts | 43° |
| 2026-04-26 16:13 | 45.22074 | 15.45351 | 37089 ft | 457 kts | 43° |
| 2026-04-26 16:13 | 45.24311 | 15.48573 | 37108 ft | 460 kts | 43° |
| 2026-04-26 16:13 | 45.28279 | 15.55684 | 37089 ft | 465 kts | 65° |
| 2026-04-26 16:14 | 45.30108 | 15.64534 | 37094 ft | 470 kts | 75° |
| 2026-04-26 16:15 | 45.32841 | 15.77847 | 37077 ft | 464 kts | 56° |
| 2026-04-26 16:15 | 45.34814 | 15.81403 | 37117 ft | 458 kts | 41° |
| 2026-04-26 16:15 | 45.37216 | 15.84370 | 37107 ft | 459 kts | 38° |
| 2026-04-26 16:16 | 45.43619 | 15.92357 | 37114 ft | 460 kts | 39° |
| 2026-04-26 16:16 | 45.46244 | 15.95680 | 37117 ft | 460 kts | 39° |
| 2026-04-26 16:17 | 45.50995 | 16.01711 | 37124 ft | 460 kts | 39° |
| 2026-04-26 16:17 | 45.55775 | 16.07796 | 37128 ft | 461 kts | 39° |
| 2026-04-26 16:18 | 45.62944 | 16.16945 | 37128 ft | 461 kts | 39° |
| 2026-04-26 16:19 | 45.70111 | 16.26128 | 37132 ft | 462 kts | 38° |
| 2026-04-26 16:20 | 45.77277 | 16.35341 | 37135 ft | 462 kts | 38° |
| 2026-04-26 16:20 | 45.84443 | 16.44587 | 37140 ft | 462 kts | 38° |
| 2026-04-26 16:21 | 45.89217 | 16.50767 | 37148 ft | 462 kts | 39° |
| 2026-04-26 16:21 | 45.93989 | 16.56958 | 37148 ft | 462 kts | 39° |
| 2026-04-26 16:22 | 45.98760 | 16.63163 | 37155 ft | 463 kts | 38° |
| 2026-04-26 16:22 | 46.03530 | 16.69382 | 37158 ft | 463 kts | 39° |
| 2026-04-26 16:23 | 46.08300 | 16.75615 | 37164 ft | 463 kts | 39° |
| 2026-04-26 16:23 | 46.13068 | 16.81861 | 37162 ft | 463 kts | 39° |
| 2026-04-26 16:24 | 46.17837 | 16.88124 | 37167 ft | 464 kts | 39° |
| 2026-04-26 16:24 | 46.22608 | 16.94399 | 37167 ft | 464 kts | 37° |
| 2026-04-26 16:25 | 46.25218 | 16.97036 | 37155 ft | 454 kts | 22° |
| 2026-04-26 16:25 | 46.28070 | 16.98985 | 37163 ft | 455 kts | 22° |
| 2026-04-26 16:25 | 46.33730 | 17.03117 | 37176 ft | 456 kts | 22° |
| 2026-04-26 16:26 | 46.38441 | 17.06559 | 37174 ft | 456 kts | 22° |
| 2026-04-26 16:26 | 46.45059 | 17.11404 | 37192 ft | 456 kts | 22° |
| 2026-04-26 16:27 | 46.50721 | 17.15559 | 37202 ft | 456 kts | 22° |
| 2026-04-26 16:27 | 46.56382 | 17.19724 | 37201 ft | 456 kts | 22° |
| 2026-04-26 16:28 | 46.62041 | 17.23897 | 37219 ft | 456 kts | 22° |
| 2026-04-26 16:28 | 46.67701 | 17.28081 | 37212 ft | 456 kts | 22° |
| 2026-04-26 16:29 | 46.73282 | 17.32529 | 37212 ft | 458 kts | 25° |
| 2026-04-26 16:29 | 46.78818 | 17.36986 | 37205 ft | 458 kts | 24° |
| 2026-04-26 16:30 | 46.84431 | 17.41505 | 37196 ft | 458 kts | 24° |
| 2026-04-26 16:30 | 46.89968 | 17.45974 | 37185 ft | 458 kts | 24° |
| 2026-04-26 16:31 | 46.95543 | 17.50484 | 37184 ft | 458 kts | 24° |
| 2026-04-26 16:31 | 47.01116 | 17.55003 | 37185 ft | 458 kts | 24° |
| 2026-04-26 16:32 | 47.05746 | 17.58767 | 37190 ft | 458 kts | 24° |
| 2026-04-26 16:32 | 47.12259 | 17.64072 | 37191 ft | 458 kts | 24° |
| 2026-04-26 16:33 | 47.17826 | 17.68620 | 37198 ft | 458 kts | 24° |
| 2026-04-26 16:33 | 47.23394 | 17.73178 | 37204 ft | 458 kts | 24° |
| 2026-04-26 16:34 | 47.28960 | 17.77747 | 37196 ft | 458 kts | 24° |
| 2026-04-26 16:34 | 47.34524 | 17.82325 | 37203 ft | 458 kts | 24° |
| 2026-04-26 16:35 | 47.40093 | 17.86918 | 37198 ft | 458 kts | 24° |
| 2026-04-26 16:35 | 47.45652 | 17.91514 | 37210 ft | 458 kts | 24° |
| 2026-04-26 16:36 | 47.51209 | 17.96120 | 36872 ft | 457 kts | 24° |
| 2026-04-26 16:36 | 47.53986 | 17.98426 | 36631 ft | 458 kts | 24° |
| 2026-04-26 16:36 | 47.56764 | 18.00736 | 36397 ft | 459 kts | 24° |
| 2026-04-26 16:37 | 47.59513 | 18.03024 | 36165 ft | 460 kts | 24° |
| 2026-04-26 16:37 | 47.62300 | 18.05346 | 35931 ft | 461 kts | 24° |
| 2026-04-26 16:37 | 47.65095 | 18.07678 | 35701 ft | 461 kts | 24° |
| 2026-04-26 16:37 | 47.67897 | 18.10019 | 35476 ft | 462 kts | 24° |
| 2026-04-26 16:38 | 47.70702 | 18.12367 | 35246 ft | 463 kts | 24° |
| 2026-04-26 16:38 | 47.73508 | 18.14717 | 35074 ft | 464 kts | 24° |
| 2026-04-26 16:38 | 47.76319 | 18.17074 | 34936 ft | 465 kts | 24° |
| 2026-04-26 16:38 | 47.79139 | 18.19442 | 34802 ft | 465 kts | 24° |
| 2026-04-26 16:39 | 47.81956 | 18.21810 | 34671 ft | 465 kts | 24° |
| 2026-04-26 16:39 | 47.84776 | 18.24184 | 34540 ft | 466 kts | 24° |
| 2026-04-26 16:39 | 47.87597 | 18.26562 | 34397 ft | 466 kts | 23° |
| 2026-04-26 16:39 | 47.90417 | 18.28942 | 34275 ft | 466 kts | 23° |
| 2026-04-26 16:40 | 47.96060 | 18.33712 | 34201 ft | 467 kts | 23° |
| 2026-04-26 16:40 | 48.01710 | 18.38502 | 34202 ft | 467 kts | 23° |
| 2026-04-26 16:41 | 48.07357 | 18.43301 | 34209 ft | 467 kts | 23° |
| 2026-04-26 16:41 | 48.12996 | 18.48105 | 34195 ft | 467 kts | 23° |
| 2026-04-26 16:42 | 48.18643 | 18.52928 | 34193 ft | 467 kts | 23° |
| 2026-04-26 16:42 | 48.24283 | 18.57758 | 34195 ft | 467 kts | 23° |
| 2026-04-26 16:43 | 48.29924 | 18.62601 | 34200 ft | 467 kts | 23° |
| 2026-04-26 16:43 | 48.35567 | 18.67459 | 34196 ft | 468 kts | 23° |
| 2026-04-26 16:44 | 48.41212 | 18.72331 | 34197 ft | 468 kts | 23° |
| 2026-04-26 16:44 | 48.44032 | 18.74769 | 33781 ft | 467 kts | 23° |
| 2026-04-26 16:44 | 48.46844 | 18.77204 | 33068 ft | 466 kts | 23° |
| 2026-04-26 16:45 | 48.49653 | 18.79639 | 32363 ft | 467 kts | 23° |
| 2026-04-26 16:45 | 48.52474 | 18.82087 | 31668 ft | 468 kts | 23° |
| 2026-04-26 16:45 | 48.55298 | 18.84541 | 30985 ft | 469 kts | 23° |
| 2026-04-26 16:45 | 48.58126 | 18.87003 | 30328 ft | 470 kts | 23° |
| 2026-04-26 16:46 | 48.60964 | 18.89476 | 29558 ft | 472 kts | 24° |
| 2026-04-26 16:46 | 48.63809 | 18.91958 | 28818 ft | 471 kts | 24° |
| 2026-04-26 16:46 | 48.66626 | 18.94420 | 28126 ft | 466 kts | 24° |
| 2026-04-26 16:46 | 48.69412 | 18.96858 | 27604 ft | 459 kts | 23° |
| 2026-04-26 16:47 | 48.72157 | 18.99262 | 27071 ft | 453 kts | 23° |
| 2026-04-26 16:47 | 48.74863 | 19.01636 | 26548 ft | 447 kts | 23° |
| 2026-04-26 16:47 | 48.77532 | 19.03979 | 26040 ft | 440 kts | 23° |
| 2026-04-26 16:47 | 48.80167 | 19.06297 | 25548 ft | 435 kts | 23° |
| 2026-04-26 16:48 | 48.82771 | 19.08590 | 25039 ft | 430 kts | 23° |
| 2026-04-26 16:48 | 48.85339 | 19.10853 | 24588 ft | 424 kts | 23° |
| 2026-04-26 16:48 | 48.87879 | 19.13094 | 24102 ft | 420 kts | 23° |
| 2026-04-26 16:48 | 48.90396 | 19.15318 | 23610 ft | 416 kts | 22° |
| 2026-04-26 16:49 | 48.92883 | 19.17518 | 23053 ft | 411 kts | 23° |
| 2026-04-26 16:49 | 48.95345 | 19.19698 | 22535 ft | 408 kts | 23° |
| 2026-04-26 16:49 | 48.97784 | 19.21860 | 22002 ft | 404 kts | 23° |
| 2026-04-26 16:49 | 49.00207 | 19.24010 | 21469 ft | 401 kts | 23° |
| 2026-04-26 16:50 | 49.02609 | 19.26145 | 20964 ft | 398 kts | 24° |
| 2026-04-26 16:50 | 49.04991 | 19.28264 | 20455 ft | 395 kts | 24° |
| 2026-04-26 16:50 | 49.07355 | 19.30369 | 20034 ft | 391 kts | 24° |
| 2026-04-26 16:50 | 49.09690 | 19.32451 | 19645 ft | 387 kts | 24° |
| 2026-04-26 16:51 | 49.11997 | 19.34510 | 19256 ft | 381 kts | 24° |
| 2026-04-26 16:51 | 49.14270 | 19.36542 | 18884 ft | 376 kts | 24° |
| 2026-04-26 16:51 | 49.15763 | 19.37877 | 18640 ft | 374 kts | 24° |
| 2026-04-26 16:51 | 49.18750 | 19.40550 | 18072 ft | 370 kts | 25° |
| 2026-04-26 16:52 | 49.20217 | 19.41864 | 17804 ft | 368 kts | 25° |
| 2026-04-26 16:52 | 49.21708 | 19.43202 | 17513 ft | 366 kts | 25° |
| 2026-04-26 16:52 | 49.24600 | 19.45797 | 16952 ft | 362 kts | 25° |
| 2026-04-26 16:52 | 49.26767 | 19.47745 | 16557 ft | 360 kts | 25° |
| 2026-04-26 16:53 | 49.28913 | 19.49677 | 16153 ft | 357 kts | 25° |
| 2026-04-26 16:53 | 49.31049 | 19.51600 | 15747 ft | 355 kts | 25° |
| 2026-04-26 16:53 | 49.33175 | 19.53516 | 15355 ft | 353 kts | 25° |
| 2026-04-26 16:53 | 49.35282 | 19.55418 | 14980 ft | 350 kts | 25° |
| 2026-04-26 16:54 | 49.37378 | 19.57312 | 14597 ft | 349 kts | 25° |
| 2026-04-26 16:54 | 49.39465 | 19.59199 | 14205 ft | 347 kts | 25° |
| 2026-04-26 16:54 | 49.41542 | 19.61079 | 13817 ft | 345 kts | 25° |
| 2026-04-26 16:54 | 49.43607 | 19.62950 | 13417 ft | 343 kts | 25° |
| 2026-04-26 16:55 | 49.45610 | 19.64911 | 13074 ft | 344 kts | 35° |
| 2026-04-26 16:55 | 49.47287 | 19.67552 | 12737 ft | 345 kts | 42° |
| 2026-04-26 16:55 | 49.48932 | 19.70234 | 12394 ft | 344 kts | 41° |
| 2026-04-26 16:55 | 49.50575 | 19.72907 | 12055 ft | 343 kts | 42° |
| 2026-04-26 16:56 | 49.53836 | 19.78215 | 11403 ft | 340 kts | 42° |
| 2026-04-26 16:56 | 49.55452 | 19.80851 | 11081 ft | 338 kts | 42° |
| 2026-04-26 16:56 | 49.57059 | 19.83474 | 10760 ft | 336 kts | 42° |
| 2026-04-26 16:57 | 49.58658 | 19.86087 | 10432 ft | 334 kts | 42° |
| 2026-04-26 16:57 | 49.60244 | 19.88680 | 10243 ft | 332 kts | 42° |
| 2026-04-26 16:57 | 49.63415 | 19.93874 | 10204 ft | 333 kts | 42° |
| 2026-04-26 16:58 | 49.65005 | 19.96482 | 10208 ft | 333 kts | 42° |
| 2026-04-26 16:58 | 49.66055 | 19.98207 | 10215 ft | 333 kts | 42° |
| 2026-04-26 16:58 | 49.69765 | 20.04307 | 10203 ft | 334 kts | 42° |
| 2026-04-26 16:59 | 49.71355 | 20.06927 | 10213 ft | 334 kts | 42° |
| 2026-04-26 16:59 | 49.74532 | 20.12167 | 10189 ft | 331 kts | 42° |
| 2026-04-26 17:00 | 49.78087 | 20.15700 | 9479 ft | 292 kts | 1° |
| 2026-04-26 17:00 | 49.81854 | 20.14319 | 8730 ft | 280 kts | 342° |
| 2026-04-26 17:00 | 49.83820 | 20.14386 | 8322 ft | 293 kts | 12° |
| 2026-04-26 17:01 | 49.85723 | 20.15566 | 7941 ft | 294 kts | 14° |
| 2026-04-26 17:01 | 49.87647 | 20.16604 | 7556 ft | 292 kts | 12° |
| 2026-04-26 17:01 | 49.89581 | 20.17567 | 7178 ft | 292 kts | 11° |
| 2026-04-26 17:01 | 49.91509 | 20.18482 | 6790 ft | 286 kts | 11° |
| 2026-04-26 17:02 | 49.93357 | 20.19340 | 6484 ft | 278 kts | 10° |
| 2026-04-26 17:02 | 49.95203 | 20.20181 | 6186 ft | 275 kts | 10° |
| 2026-04-26 17:02 | 49.97032 | 20.21006 | 5876 ft | 273 kts | 10° |
| 2026-04-26 17:02 | 49.98851 | 20.21823 | 5578 ft | 271 kts | 10° |
| 2026-04-26 17:03 | 50.00656 | 20.22612 | 5265 ft | 268 kts | 7° |
| 2026-04-26 17:03 | 50.02449 | 20.22578 | 4962 ft | 252 kts | 339° |
| 2026-04-26 17:03 | 50.03978 | 20.21450 | 4707 ft | 237 kts | 321° |
| 2026-04-26 17:03 | 50.05146 | 20.19777 | 4433 ft | 222 kts | 311° |
| 2026-04-26 17:04 | 50.06221 | 20.18084 | 4154 ft | 218 kts | 311° |
| 2026-04-26 17:04 | 50.07290 | 20.16417 | 4011 ft | 217 kts | 311° |
| 2026-04-26 17:04 | 50.08362 | 20.14750 | 3992 ft | 218 kts | 311° |
| 2026-04-26 17:04 | 50.09433 | 20.13091 | 3983 ft | 212 kts | 311° |
| 2026-04-26 17:05 | 50.10431 | 20.11545 | 3996 ft | 195 kts | 311° |
| 2026-04-26 17:05 | 50.11309 | 20.09985 | 3968 ft | 189 kts | 296° |
| 2026-04-26 17:05 | 50.11596 | 20.08032 | 3994 ft | 186 kts | 272° |
| 2026-04-26 17:05 | 50.11511 | 20.06008 | 4008 ft | 189 kts | 264° |
| 2026-04-26 17:06 | 50.11292 | 20.04005 | 3991 ft | 182 kts | 261° |
| 2026-04-26 17:06 | 50.11052 | 20.02149 | 3880 ft | 170 kts | 260° |
| 2026-04-26 17:06 | 50.10811 | 20.00377 | 3711 ft | 164 kts | 261° |
| 2026-04-26 17:06 | 50.10577 | 19.98687 | 3524 ft | 155 kts | 261° |
| 2026-04-26 17:07 | 50.10350 | 19.97035 | 3321 ft | 157 kts | 261° |
| 2026-04-26 17:07 | 50.10119 | 19.95370 | 3117 ft | 157 kts | 260° |
| 2026-04-26 17:07 | 50.09890 | 19.93715 | 2909 ft | 157 kts | 260° |
| 2026-04-26 17:07 | 50.09659 | 19.92058 | 2706 ft | 154 kts | 260° |
| 2026-04-26 17:08 | 50.09445 | 19.90518 | 2498 ft | 136 kts | 260° |
| 2026-04-26 17:08 | 50.09250 | 19.89114 | 2293 ft | 131 kts | 260° |
| 2026-04-26 17:08 | 50.09056 | 19.87700 | 2045 ft | 137 kts | 260° |
| 2026-04-26 17:08 | 50.08855 | 19.86216 | 1762 ft | 139 kts | 262° |
| 2026-04-26 17:09 | 50.08642 | 19.84764 | 1473 ft | 136 kts | 263° |
| 2026-04-26 17:09 | 50.08509 | 19.83791 | 1334 ft | 139 kts | 263° |
| 2026-04-26 17:09 | 50.08228 | 19.81796 | 1094 ft | 143 kts | 261° |
| 2026-04-26 17:09 | 50.08024 | 19.80328 | 853 ft | 136 kts | 262° |
| 2026-04-26 17:10 | 50.07843 | 19.78912 | 798 ft | 111 kts | 259° |
| 2026-04-26 17:10 | 50.07720 | 19.78079 | 796 ft | 62 kts | 256° |
| 2026-04-26 17:10 | 50.07635 | 19.77484 | 798 ft | 48 kts | 257° |
| 2026-04-26 17:10 | 50.07575 | 19.77059 | 803 ft | 33 kts | 257° |
| 2026-04-26 17:11 | 50.07527 | 19.76857 | 804 ft | 16 kts | 217° |
| 2026-04-26 17:11 | 50.07432 | 19.76863 | 803 ft | 14 kts | 167° |
| 2026-04-26 17:11 | 50.07330 | 19.76901 | 802 ft | 16 kts | 158° |
| 2026-04-26 17:11 | 50.07317 | 19.77026 | 802 ft | 14 kts | 79° |
| 2026-04-26 17:12 | 50.07364 | 19.77357 | 802 ft | 18 kts | 78° |
| 2026-04-26 17:12 | 50.07392 | 19.77562 | 802 ft | 20 kts | 77° |
| 2026-04-26 17:13 | 50.07457 | 19.78031 | 802 ft | 24 kts | 78° |
| 2026-04-26 17:13 | 50.07491 | 19.78276 | 802 ft | 22 kts | 78° |
| 2026-04-26 17:13 | 50.07563 | 19.78790 | 802 ft | 26 kts | 78° |
| 2026-04-26 17:14 | 50.07602 | 19.79077 | 802 ft | 28 kts | 78° |
| 2026-04-26 17:14 | 50.07676 | 19.79608 | 802 ft | 26 kts | 78° |
| 2026-04-26 17:14 | 50.07710 | 19.79850 | 802 ft | 20 kts | 78° |
| 2026-04-26 17:15 | 50.07631 | 19.79952 | 802 ft | 10 kts | 207° |
| 2026-04-26 17:15 | 50.07559 | 19.79919 | 802 ft | 12 kts | 174° |
| 2026-04-26 17:15 | 50.07513 | 19.79976 | 802 ft | 9 kts | 99° |
| 2026-04-26 17:16 | 50.07512 | 19.80057 | 802 ft | 5 kts | 132° |
| 2026-04-26 17:16 | 50.07482 | 19.80076 | 802 ft | 2 kts | 167° |
| 2026-04-26 17:16 | 50.07474 | 19.80079 | 802 ft | 0 kts | 167° |